createdAt,value
2023-10-09T00:00:53.055Z,10.79
2023-10-09T00:01:53.139Z,10.79
2023-10-09T00:02:53.204Z,10.77
2023-10-09T00:03:53.263Z,10.74
2023-10-09T00:04:53.161Z,10.73
2023-10-09T00:05:53.267Z,10.79
2023-10-09T00:06:53.328Z,10.74
2023-10-09T00:07:53.264Z,10.76
2023-10-09T00:08:53.303Z,10.76
2023-10-09T00:09:53.308Z,10.77
2023-10-09T00:10:53.321Z,10.74
2023-10-09T00:11:53.413Z,10.76
2023-10-09T00:12:53.391Z,10.73
2023-10-09T00:13:53.451Z,10.70
2023-10-09T00:14:53.492Z,10.71
2023-10-09T00:15:53.548Z,10.67
2023-10-09T00:16:53.568Z,10.67
2023-10-09T00:17:53.702Z,10.71
2023-10-09T00:18:53.588Z,10.70
2023-10-09T00:19:53.883Z,10.70
2023-10-09T00:20:53.642Z,10.69
2023-10-09T00:21:53.675Z,10.73
2023-10-09T00:22:53.681Z,10.69
2023-10-09T00:23:53.734Z,10.70
2023-10-09T00:24:53.767Z,10.69
2023-10-09T00:25:53.777Z,10.70
2023-10-09T00:26:53.862Z,10.67
2023-10-09T00:27:53.834Z,10.66
2023-10-09T00:28:53.858Z,10.61
2023-10-09T00:29:53.921Z,10.61
2023-10-09T00:30:54.036Z,10.61
2023-10-09T00:31:53.971Z,10.61
2023-10-09T00:32:54.075Z,10.61
2023-10-09T00:33:54.056Z,10.59
2023-10-09T00:34:54.042Z,10.61
2023-10-09T00:35:54.092Z,10.59
2023-10-09T00:36:54.098Z,10.62
2023-10-09T00:37:54.169Z,10.56
2023-10-09T00:38:54.162Z,10.55
2023-10-09T00:39:54.172Z,10.56
2023-10-09T00:40:54.208Z,10.55
2023-10-09T00:41:54.304Z,10.55
2023-10-09T00:42:54.241Z,10.55
2023-10-09T00:43:54.470Z,10.51
2023-10-09T00:44:54.356Z,10.52
2023-10-09T00:45:54.405Z,10.47
2023-10-09T00:46:54.425Z,10.47
2023-10-09T00:47:54.511Z,10.51
2023-10-09T00:48:54.464Z,10.48
2023-10-09T00:49:54.491Z,10.42
2023-10-09T00:50:54.544Z,10.42
2023-10-09T00:51:54.712Z,10.42
2023-10-09T00:52:54.599Z,10.42
2023-10-09T00:53:54.672Z,10.39
2023-10-09T00:54:54.642Z,10.42
2023-10-09T00:55:54.698Z,10.42
2023-10-09T00:56:54.741Z,10.47
2023-10-09T00:57:54.765Z,10.42
2023-10-09T00:58:54.760Z,10.40
2023-10-09T00:59:54.828Z,10.40
2023-10-09T01:00:54.874Z,10.40
2023-10-09T01:01:55.004Z,10.43
2023-10-09T01:02:54.985Z,10.42
2023-10-09T01:03:55.097Z,10.45
2023-10-09T01:04:54.991Z,10.40
2023-10-09T01:05:55.040Z,10.43
2023-10-09T01:06:55.092Z,10.45
2023-10-09T01:07:55.133Z,10.47
2023-10-09T01:08:55.144Z,10.43
2023-10-09T01:09:55.158Z,10.42
2023-10-09T01:10:55.163Z,10.40
2023-10-09T01:11:55.244Z,10.43
2023-10-09T01:12:55.280Z,10.39
2023-10-09T01:13:55.274Z,10.39
2023-10-09T01:14:55.320Z,10.40
2023-10-09T01:15:55.393Z,10.39
2023-10-09T01:16:55.396Z,10.42
2023-10-09T01:17:55.453Z,10.39
2023-10-09T01:18:55.400Z,10.40
2023-10-09T01:19:55.460Z,10.40
2023-10-09T01:20:55.481Z,10.36
2023-10-09T01:21:55.551Z,10.39
2023-10-09T01:22:55.528Z,10.32
2023-10-09T01:23:55.595Z,10.37
2023-10-09T01:24:55.606Z,10.35
2023-10-09T01:25:55.619Z,10.33
2023-10-09T01:26:55.772Z,10.33
2023-10-09T01:27:55.700Z,10.35
2023-10-09T01:28:55.707Z,10.30
2023-10-09T01:29:55.844Z,10.29
2023-10-09T01:30:55.797Z,10.32
2023-10-09T01:31:55.941Z,10.27
2023-10-09T01:32:55.924Z,10.27
2023-10-09T01:33:55.929Z,10.25
2023-10-09T01:34:55.899Z,10.24
2023-10-09T01:35:55.947Z,10.29
2023-10-09T01:36:55.971Z,10.22
2023-10-09T01:37:56.009Z,10.25
2023-10-09T01:38:56.056Z,10.21
2023-10-09T01:39:56.059Z,10.25
2023-10-09T01:40:56.083Z,10.27
2023-10-09T01:41:56.226Z,10.27
2023-10-09T01:42:56.144Z,10.22
2023-10-09T01:43:56.185Z,10.24
2023-10-09T01:44:56.216Z,10.27
2023-10-09T01:45:56.277Z,10.25
2023-10-09T01:46:56.322Z,10.29
2023-10-09T01:47:56.620Z,10.29
2023-10-09T01:48:56.344Z,10.27
2023-10-09T01:49:56.398Z,10.27
2023-10-09T01:50:56.436Z,10.25
2023-10-09T01:51:56.491Z,10.29
2023-10-09T01:52:56.509Z,10.25
2023-10-09T01:53:56.624Z,10.29
2023-10-09T01:54:56.564Z,10.30
2023-10-09T01:55:56.847Z,10.24
2023-10-09T01:56:56.670Z,10.24
2023-10-09T01:57:59.041Z,10.29
2023-10-09T01:58:56.754Z,10.27
2023-10-09T01:59:56.764Z,10.22
2023-10-09T02:00:56.862Z,10.32
2023-10-09T02:01:56.853Z,10.24
2023-10-09T02:02:56.973Z,10.24
2023-10-09T02:03:57.118Z,10.19
2023-10-09T02:04:56.914Z,10.24
2023-10-09T02:05:56.977Z,10.21
2023-10-09T02:06:57.010Z,10.22
2023-10-09T02:07:57.038Z,10.24
2023-10-09T02:08:57.079Z,10.22
2023-10-09T02:09:57.092Z,10.24
2023-10-09T02:10:57.144Z,10.19
2023-10-09T02:11:57.209Z,10.24
2023-10-09T02:12:57.788Z,10.19
2023-10-09T02:13:57.244Z,10.24
2023-10-09T02:14:57.393Z,10.24
2023-10-09T02:15:57.346Z,10.27
2023-10-09T02:16:57.348Z,10.25
2023-10-09T02:17:57.415Z,10.24
2023-10-09T02:18:57.497Z,10.21
2023-10-09T02:19:57.425Z,10.19
2023-10-09T02:20:57.502Z,10.21
2023-10-09T02:21:57.533Z,10.24
2023-10-09T02:22:57.516Z,10.21
2023-10-09T02:23:57.586Z,10.21
2023-10-09T02:24:57.583Z,10.21
2023-10-09T02:25:57.628Z,10.22
2023-10-09T02:26:57.686Z,10.19
2023-10-09T02:27:57.707Z,10.19
2023-10-09T02:28:57.719Z,10.18
2023-10-09T02:29:57.825Z,10.19
2023-10-09T02:30:57.845Z,10.25
2023-10-09T02:31:57.861Z,10.19
2023-10-09T02:32:57.974Z,10.24
2023-10-09T02:33:57.916Z,10.24
2023-10-09T02:34:57.934Z,10.22
2023-10-09T02:35:57.993Z,10.30
2023-10-09T02:36:58.030Z,10.24
2023-10-09T02:37:58.067Z,10.30
2023-10-09T02:38:58.121Z,10.30
2023-10-09T02:39:58.122Z,10.30
2023-10-09T02:40:58.135Z,10.27
2023-10-09T02:41:58.222Z,10.25
2023-10-09T02:42:58.199Z,10.25
2023-10-09T02:43:58.253Z,10.25
2023-10-09T02:44:58.293Z,10.29
2023-10-09T02:45:58.313Z,10.25
2023-10-09T02:46:58.502Z,10.25
2023-10-09T02:47:58.442Z,10.22
2023-10-09T02:48:58.432Z,10.24
2023-10-09T02:49:58.488Z,10.19
2023-10-09T02:50:58.568Z,10.19
2023-10-09T02:51:58.589Z,10.21
2023-10-09T02:52:58.574Z,10.25
2023-10-09T02:53:58.645Z,10.25
2023-10-09T02:54:58.616Z,10.22
2023-10-09T02:55:58.688Z,10.24
2023-10-09T02:56:58.744Z,10.15
2023-10-09T02:57:58.731Z,10.21
2023-10-09T02:58:58.748Z,10.27
2023-10-09T02:59:58.850Z,10.22
2023-10-09T03:00:58.848Z,10.24
2023-10-09T03:01:58.895Z,10.24
2023-10-09T03:02:58.968Z,10.22
2023-10-09T03:03:58.988Z,10.24
2023-10-09T03:04:58.968Z,10.22
2023-10-09T03:05:59.026Z,10.24
2023-10-09T03:06:59.083Z,10.24
2023-10-09T03:07:59.083Z,10.27
2023-10-09T03:08:59.135Z,10.24
2023-10-09T03:09:59.156Z,10.21
2023-10-09T03:10:59.175Z,10.24
2023-10-09T03:11:59.269Z,10.24
2023-10-09T03:12:59.242Z,10.25
2023-10-09T03:13:59.284Z,10.22
2023-10-09T03:14:59.328Z,10.24
2023-10-09T03:15:59.353Z,10.27
2023-10-09T03:16:59.451Z,10.21
2023-10-09T03:17:59.492Z,10.27
2023-10-09T03:18:59.448Z,10.25
2023-10-09T03:19:59.493Z,10.27
2023-10-09T03:20:59.518Z,10.25
2023-10-09T03:21:59.566Z,10.24
2023-10-09T03:22:59.576Z,10.22
2023-10-09T03:23:59.660Z,10.25
2023-10-09T03:24:59.647Z,10.22
2023-10-09T03:26:10.812Z,10.22
2023-10-09T03:26:59.745Z,10.22
2023-10-09T03:27:59.759Z,10.18
2023-10-09T03:28:59.772Z,10.19
2023-10-09T03:29:59.859Z,10.25
2023-10-09T03:30:59.861Z,10.21
2023-10-09T03:31:59.939Z,10.24
2023-10-09T03:32:59.978Z,10.22
2023-10-09T03:33:59.964Z,10.19
2023-10-09T03:34:59.985Z,10.21
2023-10-09T03:36:00.067Z,10.19
2023-10-09T03:37:00.076Z,10.19
2023-10-09T03:38:00.113Z,10.19
2023-10-09T03:39:00.158Z,10.21
2023-10-09T03:40:00.256Z,10.21
2023-10-09T03:41:00.197Z,10.22
2023-10-09T03:42:00.284Z,10.19
2023-10-09T03:43:00.251Z,10.19
2023-10-09T03:44:00.315Z,10.15
2023-10-09T03:45:00.525Z,10.19
2023-10-09T03:46:00.470Z,10.21
2023-10-09T03:47:00.422Z,10.19
2023-10-09T03:48:00.576Z,10.18
2023-10-09T03:49:00.488Z,10.18
2023-10-09T03:50:00.524Z,10.19
2023-10-09T03:51:00.617Z,10.17
2023-10-09T03:52:00.845Z,10.19
2023-10-09T03:53:00.646Z,10.18
2023-10-09T03:54:00.727Z,10.15
2023-10-09T03:55:00.713Z,10.15
2023-10-09T03:56:00.741Z,10.17
2023-10-09T03:57:00.810Z,10.17
2023-10-09T03:58:01.085Z,10.17
2023-10-09T03:59:00.827Z,10.14
2023-10-09T04:00:00.903Z,10.14
2023-10-09T04:01:00.930Z,10.14
2023-10-09T04:02:00.965Z,10.11
2023-10-09T04:03:01.174Z,10.07
2023-10-09T04:04:01.409Z,10.15
2023-10-09T04:05:01.115Z,10.12
2023-10-09T04:06:01.082Z,10.11
2023-10-09T04:07:01.137Z,10.12
2023-10-09T04:08:01.156Z,10.12
2023-10-09T04:09:01.241Z,10.12
2023-10-09T04:10:01.239Z,10.12
2023-10-09T04:11:01.242Z,10.12
2023-10-09T04:12:01.352Z,10.11
2023-10-09T04:13:01.295Z,10.14
2023-10-09T04:14:01.338Z,10.12
2023-10-09T04:15:01.410Z,10.12
2023-10-09T04:16:01.414Z,10.07
2023-10-09T04:17:01.453Z,10.14
2023-10-09T04:18:01.509Z,10.10
2023-10-09T04:19:01.575Z,10.06
2023-10-09T04:20:01.556Z,10.03
2023-10-09T04:21:01.656Z,10.00
2023-10-09T04:22:01.653Z,9.99
2023-10-09T04:23:01.749Z,9.99
2023-10-09T04:24:01.721Z,9.97
2023-10-09T04:25:01.730Z,9.97
2023-10-09T04:26:01.765Z,9.99
2023-10-09T04:27:01.809Z,9.99
2023-10-09T04:28:01.831Z,9.99
2023-10-09T04:29:01.846Z,9.97
2023-10-09T04:30:02.056Z,9.97
2023-10-09T04:31:02.021Z,9.97
2023-10-09T04:32:02.166Z,10.04
2023-10-09T04:33:02.084Z,10.02
2023-10-09T04:34:02.058Z,10.00
2023-10-09T04:35:02.087Z,10.04
2023-10-09T04:36:02.178Z,10.04
2023-10-09T04:37:02.428Z,10.03
2023-10-09T04:38:02.208Z,10.03
2023-10-09T04:39:02.257Z,9.99
2023-10-09T04:40:02.281Z,10.04
2023-10-09T04:41:02.303Z,9.99
2023-10-09T04:42:02.370Z,10.03
2023-10-09T04:43:02.370Z,9.99
2023-10-09T04:44:02.410Z,9.99
2023-10-09T04:45:02.465Z,10.02
2023-10-09T04:46:02.506Z,10.03
2023-10-09T04:47:02.606Z,10.04
2023-10-09T04:48:02.650Z,10.00
2023-10-09T04:49:02.596Z,10.02
2023-10-09T04:50:02.780Z,10.03
2023-10-09T04:51:02.691Z,10.06
2023-10-09T04:52:02.774Z,10.03
2023-10-09T04:53:02.781Z,10.02
2023-10-09T04:54:02.820Z,10.06
2023-10-09T04:55:02.836Z,10.04
2023-10-09T04:56:02.888Z,10.02
2023-10-09T04:57:02.985Z,10.00
2023-10-09T04:58:03.325Z,10.06
2023-10-09T04:59:02.997Z,10.02
2023-10-09T05:00:03.154Z,9.97
2023-10-09T05:01:03.087Z,9.97
2023-10-09T05:02:03.158Z,9.97
2023-10-09T05:03:03.266Z,10.00
2023-10-09T05:04:03.303Z,9.97
2023-10-09T05:05:03.224Z,9.99
2023-10-09T05:06:03.310Z,10.00
2023-10-09T05:07:03.335Z,9.99
2023-10-09T05:08:03.365Z,9.94
2023-10-09T05:09:03.434Z,9.92
2023-10-09T05:10:03.470Z,9.96
2023-10-09T05:11:03.543Z,9.96
2023-10-09T05:12:03.567Z,9.96
2023-10-09T05:13:03.568Z,9.96
2023-10-09T05:14:03.623Z,9.96
2023-10-09T05:15:03.675Z,10.00
2023-10-09T05:16:03.780Z,9.99
2023-10-09T05:17:03.773Z,9.97
2023-10-09T05:18:03.976Z,10.00
2023-10-09T05:19:03.826Z,9.97
2023-10-09T05:20:03.893Z,9.97
2023-10-09T05:21:04.056Z,9.99
2023-10-09T05:22:04.002Z,9.97
2023-10-09T05:23:04.010Z,10.02
2023-10-09T05:24:04.076Z,10.00
2023-10-09T05:25:04.088Z,9.99
2023-10-09T05:26:04.146Z,9.93
2023-10-09T05:27:04.217Z,9.96
2023-10-09T05:28:04.234Z,9.90
2023-10-09T05:29:04.254Z,9.93
2023-10-09T05:30:04.342Z,9.86
2023-10-09T05:31:04.320Z,9.93
2023-10-09T05:32:04.399Z,9.86
2023-10-09T05:33:04.471Z,9.90
2023-10-09T05:34:04.460Z,9.93
2023-10-09T05:35:04.526Z,9.94
2023-10-09T05:36:04.586Z,9.88
2023-10-09T05:37:04.603Z,9.85
2023-10-09T05:38:04.640Z,9.86
2023-10-09T05:39:04.691Z,9.84
2023-10-09T05:40:04.741Z,9.86
2023-10-09T05:41:04.768Z,9.81
2023-10-09T05:42:04.839Z,9.81
2023-10-09T05:43:04.853Z,9.81
2023-10-09T05:44:04.904Z,9.81
2023-10-09T05:45:04.983Z,9.82
2023-10-09T05:46:05.043Z,9.85
2023-10-09T05:47:05.030Z,9.82
2023-10-09T05:48:05.148Z,9.84
2023-10-09T05:49:05.137Z,9.86
2023-10-09T05:50:05.136Z,9.82
2023-10-09T05:51:05.258Z,9.86
2023-10-09T05:52:05.246Z,9.88
2023-10-09T05:53:05.260Z,9.85
2023-10-09T05:54:05.319Z,9.88
2023-10-09T05:55:05.349Z,9.85
2023-10-09T05:56:05.391Z,9.85
2023-10-09T05:57:05.472Z,9.86
2023-10-09T05:58:05.509Z,9.84
2023-10-09T05:59:05.528Z,9.85
2023-10-09T06:00:05.686Z,9.86
2023-10-09T06:01:05.630Z,9.84
2023-10-09T06:02:05.662Z,9.90
2023-10-09T06:03:05.843Z,9.84
2023-10-09T06:04:06.070Z,9.85
2023-10-09T06:05:05.863Z,9.86
2023-10-09T06:06:05.965Z,9.88
2023-10-09T06:07:05.889Z,9.92
2023-10-09T06:08:05.976Z,9.85
2023-10-09T06:09:06.012Z,9.90
2023-10-09T06:10:05.990Z,9.86
2023-10-09T06:11:06.011Z,9.94
2023-10-09T06:12:06.199Z,9.92
2023-10-09T06:13:06.135Z,9.94
2023-10-09T06:14:06.223Z,9.92
2023-10-09T06:15:06.174Z,9.94
2023-10-09T06:16:06.266Z,9.92
2023-10-09T06:17:06.367Z,9.93
2023-10-09T06:18:06.420Z,9.92
2023-10-09T06:19:06.441Z,9.94
2023-10-09T06:20:06.381Z,9.93
2023-10-09T06:21:06.450Z,9.92
2023-10-09T06:22:06.489Z,9.94
2023-10-09T06:23:06.506Z,9.96
2023-10-09T06:24:06.577Z,9.96
2023-10-09T06:25:06.568Z,9.97
2023-10-09T06:26:06.629Z,9.99
2023-10-09T06:27:06.690Z,9.97
2023-10-09T06:28:06.726Z,9.96
2023-10-09T06:29:06.761Z,9.96
2023-10-09T06:30:06.852Z,9.96
2023-10-09T06:31:06.882Z,9.96
2023-10-09T06:32:06.887Z,9.99
2023-10-09T06:33:06.953Z,9.94
2023-10-09T06:34:06.953Z,9.96
2023-10-09T06:35:06.979Z,9.97
2023-10-09T06:36:07.041Z,9.97
2023-10-09T06:37:07.057Z,9.94
2023-10-09T06:38:07.123Z,9.96
2023-10-09T06:39:07.169Z,9.99
2023-10-09T06:40:07.206Z,9.99
2023-10-09T06:41:07.233Z,9.99
2023-10-09T06:42:07.258Z,10.02
2023-10-09T06:43:07.284Z,10.02
2023-10-09T06:44:07.895Z,10.02
2023-10-09T06:45:07.422Z,10.03
2023-10-09T06:46:07.451Z,10.10
2023-10-09T06:47:07.459Z,10.04
2023-10-09T06:48:07.607Z,10.11
2023-10-09T06:49:07.528Z,10.11
2023-10-09T06:50:07.600Z,10.11
2023-10-09T06:51:07.637Z,10.11
2023-10-09T06:52:07.671Z,10.14
2023-10-09T06:53:07.720Z,10.15
2023-10-09T06:54:07.793Z,10.18
2023-10-09T06:55:07.773Z,10.17
2023-10-09T06:56:07.845Z,10.15
2023-10-09T06:57:08.014Z,10.19
2023-10-09T06:58:07.899Z,10.21
2023-10-09T06:59:07.924Z,10.21
2023-10-09T07:00:08.080Z,10.22
2023-10-09T07:01:08.029Z,10.18
2023-10-09T07:02:08.065Z,10.21
2023-10-09T07:03:08.194Z,10.21
2023-10-09T07:04:08.174Z,10.21
2023-10-09T07:05:08.173Z,10.25
2023-10-09T07:06:08.223Z,10.24
2023-10-09T07:07:08.262Z,10.22
2023-10-09T07:08:08.274Z,10.21
2023-10-09T07:09:08.361Z,10.25
2023-10-09T07:10:08.368Z,10.24
2023-10-09T07:11:08.491Z,10.25
2023-10-09T07:12:08.509Z,10.29
2023-10-09T07:13:08.791Z,10.29
2023-10-09T07:14:08.524Z,10.29
2023-10-09T07:15:08.705Z,10.30
2023-10-09T07:16:08.690Z,10.29
2023-10-09T07:17:08.644Z,10.29
2023-10-09T07:18:08.822Z,10.32
2023-10-09T07:19:08.696Z,10.33
2023-10-09T07:20:08.761Z,10.40
2023-10-09T07:21:08.857Z,10.37
2023-10-09T07:22:08.836Z,10.37
2023-10-09T07:23:08.847Z,10.40
2023-10-09T07:24:09.457Z,10.42
2023-10-09T07:25:08.921Z,10.40
2023-10-09T07:26:08.991Z,10.39
2023-10-09T07:27:09.049Z,10.40
2023-10-09T07:28:09.057Z,10.35
2023-10-09T07:29:09.089Z,10.35
2023-10-09T07:30:09.135Z,10.39
2023-10-09T07:31:09.179Z,10.36
2023-10-09T07:32:09.211Z,10.37
2023-10-09T07:33:09.421Z,10.36
2023-10-09T07:34:09.274Z,10.40
2023-10-09T07:35:09.302Z,10.39
2023-10-09T07:36:09.443Z,10.39
2023-10-09T07:37:09.404Z,10.42
2023-10-09T07:38:09.424Z,10.45
2023-10-09T07:39:09.476Z,10.47
2023-10-09T07:40:09.539Z,10.48
2023-10-09T07:41:09.569Z,10.47
2023-10-09T07:42:09.665Z,10.48
2023-10-09T07:43:09.640Z,10.51
2023-10-09T07:44:09.647Z,10.47
2023-10-09T07:45:09.692Z,10.47
2023-10-09T07:46:09.785Z,10.43
2023-10-09T07:47:09.761Z,10.40
2023-10-09T07:48:09.833Z,10.42
2023-10-09T07:49:10.244Z,10.42
2023-10-09T07:50:09.856Z,10.40
2023-10-09T07:51:09.878Z,10.42
2023-10-09T07:52:09.959Z,10.43
2023-10-09T07:53:09.948Z,10.45
2023-10-09T07:54:11.359Z,10.47
2023-10-09T07:55:10.017Z,10.47
2023-10-09T07:56:10.057Z,10.52
2023-10-09T07:57:10.386Z,10.48
2023-10-09T07:58:10.132Z,10.52
2023-10-09T07:59:10.165Z,10.55
2023-10-09T08:00:10.236Z,10.52
2023-10-09T08:01:10.277Z,10.52
2023-10-09T08:02:10.356Z,10.48
2023-10-09T08:03:10.404Z,10.45
2023-10-09T08:04:10.485Z,10.47
2023-10-09T08:05:10.371Z,10.48
2023-10-09T08:06:10.529Z,10.48
2023-10-09T08:08:06.132Z,10.48
2023-10-09T08:08:22.892Z,10.51
2023-10-09T08:09:10.586Z,10.51
2023-10-09T08:10:12.921Z,10.55
2023-10-09T08:11:10.576Z,10.51
2023-10-09T08:12:10.686Z,10.55
2023-10-09T08:13:10.637Z,10.55
2023-10-09T08:14:10.690Z,10.55
2023-10-09T08:15:10.723Z,10.54
2023-10-09T08:16:10.817Z,10.55
2023-10-09T08:17:10.866Z,10.51
2023-10-09T08:18:10.960Z,10.47
2023-10-09T08:19:10.860Z,10.52
2023-10-09T08:20:10.893Z,10.55
2023-10-09T08:21:10.939Z,10.55
2023-10-09T08:22:11.006Z,10.52
2023-10-09T08:23:10.954Z,10.51
2023-10-09T08:24:11.044Z,10.48
2023-10-09T08:25:11.016Z,10.47
2023-10-09T08:26:11.076Z,10.47
2023-10-09T08:27:11.106Z,10.51
2023-10-09T08:28:11.139Z,10.55
2023-10-09T08:29:11.142Z,10.52
2023-10-09T08:30:11.217Z,10.52
2023-10-09T08:31:11.256Z,10.55
2023-10-09T08:32:11.307Z,10.54
2023-10-09T08:35:11.539Z,10.48
2023-10-09T08:36:11.479Z,10.52
2023-10-09T08:37:11.570Z,10.51
2023-10-09T08:38:11.626Z,10.52
2023-10-09T08:39:11.496Z,10.55
2023-10-09T08:40:11.515Z,10.54
2023-10-09T08:41:11.538Z,10.59
2023-10-09T08:42:11.589Z,10.55
2023-10-09T08:43:11.666Z,10.56
2023-10-09T08:44:11.628Z,10.59
2023-10-09T08:45:11.717Z,10.58
2023-10-09T08:46:11.743Z,10.61
2023-10-09T08:47:11.757Z,10.61
2023-10-09T08:48:13.776Z,10.62
2023-10-09T08:49:11.824Z,10.66
2023-10-09T08:50:11.834Z,10.61
2023-10-09T08:51:11.852Z,10.66
2023-10-09T08:52:11.927Z,10.59
2023-10-09T08:53:11.926Z,10.66
2023-10-09T08:54:12.089Z,10.66
2023-10-09T08:55:11.984Z,10.67
2023-10-09T08:56:12.044Z,10.67
2023-10-09T08:57:12.092Z,10.67
2023-10-09T08:58:12.109Z,10.66
2023-10-09T08:59:12.254Z,10.67
2023-10-09T09:00:12.160Z,10.70
2023-10-09T09:01:12.313Z,10.70
2023-10-09T09:02:12.329Z,10.69
2023-10-09T09:03:12.314Z,10.70
2023-10-09T09:04:12.551Z,10.70
2023-10-09T09:05:12.400Z,10.76
2023-10-09T09:06:14.853Z,10.71
2023-10-09T09:07:12.428Z,10.73
2023-10-09T09:08:12.429Z,10.74
2023-10-09T09:09:12.639Z,10.77
2023-10-09T09:10:12.506Z,10.77
2023-10-09T09:11:12.774Z,10.76
2023-10-09T09:12:12.583Z,10.74
2023-10-09T09:13:12.580Z,10.76
2023-10-09T09:14:12.626Z,10.76
2023-10-09T09:15:12.644Z,10.74
2023-10-09T09:16:12.730Z,10.76
2023-10-09T09:17:13.055Z,10.79
2023-10-09T09:18:12.897Z,10.77
2023-10-09T09:19:12.958Z,10.80
2023-10-09T09:20:12.814Z,10.85
2023-10-09T09:21:12.825Z,10.80
2023-10-09T09:22:12.946Z,10.85
2023-10-09T09:23:12.924Z,10.87
2023-10-09T09:24:12.922Z,10.89
2023-10-09T09:25:12.944Z,10.87
2023-10-09T09:26:13.335Z,10.89
2023-10-09T09:27:13.034Z,10.87
2023-10-09T09:28:13.043Z,10.91
2023-10-09T09:29:13.376Z,10.91
2023-10-09T09:30:13.107Z,10.95
2023-10-09T09:31:13.181Z,10.96
2023-10-09T09:32:13.239Z,10.95
2023-10-09T09:33:13.195Z,10.95
2023-10-09T09:34:13.232Z,10.95
2023-10-09T09:35:13.297Z,10.98
2023-10-09T09:36:13.307Z,10.95
2023-10-09T09:37:13.332Z,10.98
2023-10-09T09:38:13.344Z,10.96
2023-10-09T09:39:13.515Z,11.01
2023-10-09T09:40:13.389Z,10.98
2023-10-09T09:41:13.404Z,10.95
2023-10-09T09:42:13.461Z,10.96
2023-10-09T09:43:13.450Z,10.92
2023-10-09T09:44:13.494Z,10.94
2023-10-09T09:45:13.524Z,10.95
2023-10-09T09:46:13.586Z,10.92
2023-10-09T09:47:13.670Z,10.95
2023-10-09T09:48:13.629Z,10.96
2023-10-09T09:49:13.936Z,10.92
2023-10-09T09:50:13.686Z,10.96
2023-10-09T09:51:13.679Z,10.92
2023-10-09T09:52:13.733Z,10.94
2023-10-09T09:53:13.745Z,10.96
2023-10-09T09:54:13.768Z,10.92
2023-10-09T09:55:13.819Z,10.95
2023-10-09T09:56:13.825Z,10.92
2023-10-09T09:57:13.866Z,10.89
2023-10-09T09:58:13.868Z,10.92
2023-10-09T09:59:14.087Z,10.87
2023-10-09T10:00:13.917Z,10.92
2023-10-09T10:01:13.973Z,10.89
2023-10-09T10:02:14.155Z,10.87
2023-10-09T10:03:14.149Z,10.92
2023-10-09T10:04:14.048Z,10.91
2023-10-09T10:05:14.061Z,10.94
2023-10-09T10:06:14.102Z,10.92
2023-10-09T10:07:14.154Z,10.92
2023-10-09T10:08:14.175Z,10.92
2023-10-09T10:09:14.336Z,10.91
2023-10-09T10:10:14.205Z,10.94
2023-10-09T10:11:14.259Z,10.94
2023-10-09T10:12:14.296Z,10.89
2023-10-09T10:13:14.304Z,10.94
2023-10-09T10:14:14.332Z,10.95
2023-10-09T10:15:14.359Z,10.95
2023-10-09T10:16:15.014Z,10.95
2023-10-09T10:17:14.482Z,10.94
2023-10-09T10:18:14.480Z,10.89
2023-10-09T10:19:14.563Z,10.89
2023-10-09T10:20:14.495Z,10.94
2023-10-09T10:21:14.512Z,10.89
2023-10-09T10:22:14.558Z,10.92
2023-10-09T10:23:14.560Z,10.91
2023-10-09T10:24:14.583Z,10.94
2023-10-09T10:25:14.625Z,10.91
2023-10-09T10:26:14.653Z,10.94
2023-10-09T10:27:14.700Z,10.98
2023-10-09T10:28:14.721Z,10.94
2023-10-09T10:29:14.938Z,10.96
2023-10-09T10:30:14.778Z,10.95
2023-10-09T10:31:15.107Z,10.94
2023-10-09T10:32:14.839Z,10.92
2023-10-09T10:33:14.843Z,10.91
2023-10-09T10:34:14.880Z,10.92
2023-10-09T10:35:14.904Z,10.94
2023-10-09T10:36:14.948Z,10.94
2023-10-09T10:37:14.982Z,10.91
2023-10-09T10:38:14.985Z,10.95
2023-10-09T10:39:15.214Z,10.92
2023-10-09T10:40:15.059Z,10.91
2023-10-09T10:41:15.078Z,10.96
2023-10-09T10:42:15.146Z,10.95
2023-10-09T10:43:15.126Z,10.98
2023-10-09T10:44:15.195Z,10.99
2023-10-09T10:45:15.182Z,11.01
2023-10-09T10:46:15.365Z,11.03
2023-10-09T10:47:15.550Z,11.04
2023-10-09T10:48:15.326Z,11.06
2023-10-09T10:49:15.556Z,11.09
2023-10-09T10:50:15.360Z,11.06
2023-10-09T10:51:15.345Z,11.09
2023-10-09T10:52:15.427Z,11.09
2023-10-09T10:53:15.489Z,11.04
2023-10-09T10:54:15.728Z,11.07
2023-10-09T10:55:15.469Z,11.03
2023-10-09T10:56:15.565Z,11.04
2023-10-09T10:57:15.541Z,11.03
2023-10-09T10:58:15.565Z,11.01
2023-10-09T10:59:15.909Z,10.99
2023-10-09T11:00:15.658Z,11.03
2023-10-09T11:01:15.658Z,11.01
2023-10-09T11:02:15.887Z,11.03
2023-10-09T11:03:15.854Z,11.03
2023-10-09T11:04:16.009Z,11.01
2023-10-09T11:05:16.281Z,11.04
2023-10-09T11:06:15.814Z,10.99
2023-10-09T11:07:15.849Z,11.06
2023-10-09T11:08:15.874Z,11.07
2023-10-09T11:09:15.883Z,11.09
2023-10-09T11:10:15.930Z,11.12
2023-10-09T11:11:15.965Z,11.12
2023-10-09T11:12:15.992Z,11.10
2023-10-09T11:13:15.971Z,11.10
2023-10-09T11:14:16.705Z,11.16
2023-10-09T11:15:16.060Z,11.17
2023-10-09T11:16:16.088Z,11.24
2023-10-09T11:17:16.100Z,11.21
2023-10-09T11:18:16.148Z,11.22
2023-10-09T11:19:16.160Z,11.25
2023-10-09T11:20:16.169Z,11.21
2023-10-09T11:21:16.176Z,11.21
2023-10-09T11:22:16.245Z,11.17
2023-10-09T11:23:16.243Z,11.21
2023-10-09T11:24:16.263Z,11.21
2023-10-09T11:25:16.279Z,11.19
2023-10-09T11:26:16.323Z,11.21
2023-10-09T11:27:16.347Z,11.19
2023-10-09T11:28:16.365Z,11.14
2023-10-09T11:29:16.446Z,11.12
2023-10-09T11:30:16.434Z,11.07
2023-10-09T11:31:16.519Z,11.12
2023-10-09T11:32:16.524Z,11.14
2023-10-09T11:33:16.503Z,11.14
2023-10-09T11:34:16.538Z,11.16
2023-10-09T11:35:16.626Z,11.13
2023-10-09T11:36:16.601Z,11.16
2023-10-09T11:37:16.640Z,11.16
2023-10-09T11:38:16.634Z,11.12
2023-10-09T11:39:16.658Z,11.07
2023-10-09T11:40:18.184Z,11.10
2023-10-09T11:41:16.711Z,11.12
2023-10-09T11:42:16.770Z,11.16
2023-10-09T11:43:16.884Z,11.14
2023-10-09T11:44:17.032Z,11.19
2023-10-09T11:45:16.909Z,11.21
2023-10-09T11:46:16.910Z,11.16
2023-10-09T11:47:16.922Z,11.22
2023-10-09T11:48:16.973Z,11.22
2023-10-09T11:49:16.962Z,11.19
2023-10-09T11:50:16.992Z,11.17
2023-10-09T11:51:16.983Z,11.22
2023-10-09T11:52:17.079Z,11.21
2023-10-09T11:53:17.036Z,11.17
2023-10-09T11:54:17.074Z,11.19
2023-10-09T11:55:17.105Z,11.27
2023-10-09T11:56:17.124Z,11.28
2023-10-09T11:57:17.172Z,11.28
2023-10-09T11:58:17.191Z,11.31
2023-10-09T11:59:17.186Z,11.37
2023-10-09T12:00:17.348Z,11.43
2023-10-09T12:01:17.259Z,11.43
2023-10-09T12:02:17.379Z,11.40
2023-10-09T12:03:17.340Z,11.37
2023-10-09T12:04:17.346Z,11.43
2023-10-09T12:05:17.346Z,11.42
2023-10-09T12:06:17.374Z,11.43
2023-10-09T12:07:17.394Z,11.42
2023-10-09T12:08:17.417Z,11.45
2023-10-09T12:09:18.420Z,11.40
2023-10-09T12:10:17.476Z,11.42
2023-10-09T12:11:20.749Z,11.40
2023-10-09T12:12:17.548Z,11.40
2023-10-09T12:13:17.546Z,11.40
2023-10-09T12:14:17.572Z,11.43
2023-10-09T12:15:17.591Z,11.46
2023-10-09T12:16:17.639Z,11.49
2023-10-09T12:17:17.725Z,11.42
2023-10-09T12:18:17.715Z,11.46
2023-10-09T12:19:17.675Z,11.40
2023-10-09T12:20:17.711Z,11.40
2023-10-09T12:21:17.740Z,11.34
2023-10-09T12:22:17.935Z,11.40
2023-10-09T12:23:17.764Z,11.42
2023-10-09T12:24:17.997Z,11.40
2023-10-09T12:25:17.824Z,11.45
2023-10-09T12:26:17.849Z,11.43
2023-10-09T12:27:17.863Z,11.45
2023-10-09T12:28:17.888Z,11.46
2023-10-09T12:29:17.906Z,11.45
2023-10-09T12:30:17.941Z,11.45
2023-10-09T12:31:17.985Z,11.40
2023-10-09T12:32:18.026Z,11.40
2023-10-09T12:33:18.085Z,11.37
2023-10-09T12:34:18.058Z,11.35
2023-10-09T12:35:18.049Z,11.34
2023-10-09T12:36:18.076Z,11.35
2023-10-09T12:37:18.126Z,11.34
2023-10-09T12:38:18.128Z,11.32
2023-10-09T12:39:18.148Z,11.30
2023-10-09T12:40:18.173Z,11.32
2023-10-09T12:41:18.180Z,11.35
2023-10-09T12:42:18.349Z,11.34
2023-10-09T12:43:18.223Z,11.31
2023-10-09T12:44:18.359Z,11.31
2023-10-09T12:45:18.262Z,11.37
2023-10-09T12:46:18.492Z,11.34
2023-10-09T12:47:20.126Z,11.34
2023-10-09T12:48:18.387Z,11.37
2023-10-09T12:49:18.376Z,11.35
2023-10-09T12:50:18.417Z,11.40
2023-10-09T12:51:18.616Z,11.42
2023-10-09T12:52:18.514Z,11.42
2023-10-09T12:53:18.541Z,11.46
2023-10-09T12:54:18.529Z,11.42
2023-10-09T12:55:18.538Z,11.40
2023-10-09T12:56:18.572Z,11.42
2023-10-09T12:57:18.605Z,11.43
2023-10-09T12:58:18.629Z,11.47
2023-10-09T12:59:18.751Z,11.46